Time;durP1;ratioP1;P1;durP2;ratioP2;P2;SDS_P1;SDS_P2;PMS_P1;PMS_P2;Temp;Humidity;BMP_temperature;BMP_pressure;BME280_temperature;BME280_humidity;BME280_pressure;Samples;Min_cycle;Max_cycle;Signal;HPM_P1;HPM_P2
2023/06/21 00:00:40;;;;;;;33.15;21.05;;;;;;;;;;5028919;28;20194;-80
2023/06/21 00:03:05;;;;;;;30.98;22.38;;;;;;;;;;5037416;28;20214;-80
2023/06/21 00:05:33;;;;;;;29.92;21.63;;;;;;;;;;5037987;28;20190;-81
2023/06/21 00:07:58;;;;;;;32.17;22.25;;;;;;;;;;5007569;28;20182;-80
2023/06/21 00:10:24;;;;;;;33.38;20.73;;;;;;;;;;5035229;28;20674;-80
2023/06/21 00:12:50;;;;;;;32.38;18.75;;;;;;;;;;5020524;28;20652;-80
2023/06/21 00:15:16;;;;;;;28.88;19.48;;;;;;;;;;5039087;28;20185;-80
2023/06/21 00:17:41;;;;;;;29.83;20.00;;;;;;;;;;5037442;28;20178;-80
2023/06/21 00:20:09;;;;;;;29.50;19.83;;;;;;;;;;5021508;28;20590;-80
2023/06/21 00:25:10;;;;;;;29.50;19.40;;;;;;;;;;5058735;28;20228;-70
2023/06/21 00:27:35;;;;;;;29.38;18.85;;;;;;;;;;5059937;28;24661;-70
2023/06/21 00:30:01;;;;;;;28.60;19.20;;;;;;;;;;5071929;28;20176;-72
2023/06/21 00:32:26;;;;;;;31.15;18.67;;;;;;;;;;5071058;28;20180;-70
2023/06/21 00:34:51;;;;;;;31.55;19.98;;;;;;;;;;5069665;28;20547;-70
2023/06/21 00:37:16;;;;;;;31.85;18.13;;;;;;;;;;5073156;28;20179;-70
2023/06/21 00:39:42;;;;;;;28.35;18.00;;;;;;;;;;5072873;28;20246;-71
2023/06/21 00:42:08;;;;;;;30.55;18.63;;;;;;;;;;5073133;28;20177;-71
2023/06/21 00:44:33;;;;;;;27.60;18.55;;;;;;;;;;5065375;28;20332;-70
2023/06/21 00:46:58;;;;;;;29.38;18.90;;;;;;;;;;5073757;28;20169;-71
2023/06/21 00:49:24;;;;;;;29.48;18.38;;;;;;;;;;5070875;28;20191;-71
2023/06/21 00:51:53;;;;;;;31.85;21.02;;;;;;;;;;5072067;28;20187;-70
2023/06/21 00:54:18;;;;;;;30.15;21.00;;;;;;;;;;5073289;28;20193;-70
2023/06/21 00:56:45;;;;;;;28.10;18.63;;;;;;;;;;5070858;28;20184;-71
2023/06/21 00:59:10;;;;;;;30.02;18.98;;;;;;;;;;5073535;28;20177;-70
2023/06/21 01:01:36;;;;;;;27.25;18.42;;;;;;;;;;5068167;28;20185;-70
2023/06/21 01:04:02;;;;;;;28.73;19.10;;;;;;;;;;5069064;28;20192;-71
2023/06/21 01:06:33;;;;;;;30.50;18.92;;;;;;;;;;5072084;28;20204;-71
2023/06/21 01:09:01;;;;;;;32.58;20.25;;;;;;;;;;5071028;28;20168;-71
2023/06/21 01:11:28;;;;;;;29.60;19.83;;;;;;;;;;5072362;28;20177;-71
2023/06/21 01:14:02;;;;;;;30.38;19.80;;;;;;;;;;5068795;28;20196;-71
2023/06/21 01:16:33;;;;;;;36.90;21.55;;;;;;;;;;5068578;28;20233;-71
2023/06/21 01:19:01;;;;;;;29.60;19.88;;;;;;;;;;5067246;28;20550;-71
2023/06/21 01:21:28;;;;;;;39.05;23.25;;;;;;;;;;5072781;28;20180;-71
2023/06/21 01:24:02;;;;;;;34.90;22.67;;;;;;;;;;5070079;28;20205;-70
2023/06/21 01:26:46;;;;;;;42.53;24.48;;;;;;;;;;5072303;28;20207;-71
2023/06/21 01:29:14;;;;;;;38.65;23.13;;;;;;;;;;5064333;28;20177;-71
2023/06/21 01:31:42;;;;;;;40.38;25.80;;;;;;;;;;5071659;28;20177;-71
2023/06/21 01:34:08;;;;;;;42.30;25.73;;;;;;;;;;5064789;28;20572;-71
2023/06/21 01:36:33;;;;;;;45.10;24.63;;;;;;;;;;5071290;28;20193;-71
2023/06/21 01:39:00;;;;;;;49.20;27.45;;;;;;;;;;5071505;28;20248;-71
2023/06/21 01:41:25;;;;;;;45.17;26.65;;;;;;;;;;5070823;28;20275;-71
2023/06/21 01:43:51;;;;;;;45.28;26.13;;;;;;;;;;5070805;28;20296;-71
2023/06/21 01:46:17;;;;;;;41.75;25.17;;;;;;;;;;5071036;28;20192;-71
2023/06/21 01:48:42;;;;;;;44.15;26.13;;;;;;;;;;5072129;28;20248;-71
2023/06/21 01:51:09;;;;;;;47.58;26.58;;;;;;;;;;5062492;28;20173;-71
2023/06/21 01:53:36;;;;;;;42.60;25.90;;;;;;;;;;5073970;28;20889;-71
2023/06/21 01:56:03;;;;;;;48.42;27.38;;;;;;;;;;5069220;28;20184;-71
2023/06/21 01:58:28;;;;;;;46.40;25.98;;;;;;;;;;5072129;28;20772;-71
2023/06/21 02:00:55;;;;;;;45.70;26.77;;;;;;;;;;5071800;28;20260;-71
2023/06/21 02:03:21;;;;;;;52.50;29.52;;;;;;;;;;5071782;28;20200;-72
2023/06/21 02:05:47;;;;;;;51.67;28.05;;;;;;;;;;5071819;28;20648;-72
2023/06/21 02:08:15;;;;;;;50.85;28.45;;;;;;;;;;5072194;28;20721;-71
2023/06/21 02:10:41;;;;;;;44.78;27.02;;;;;;;;;;5065822;28;20188;-71
2023/06/21 02:13:06;;;;;;;52.78;27.83;;;;;;;;;;5070600;28;20189;-72
2023/06/21 02:15:32;;;;;;;49.35;28.15;;;;;;;;;;5072247;28;20221;-71
2023/06/21 02:17:57;;;;;;;44.20;27.52;;;;;;;;;;5071534;28;20215;-72
2023/06/21 02:20:22;;;;;;;47.97;28.40;;;;;;;;;;5068709;28;20177;-72
2023/06/21 02:22:48;;;;;;;47.20;26.80;;;;;;;;;;5071044;28;20173;-71
2023/06/21 02:25:14;;;;;;;53.53;29.20;;;;;;;;;;5069338;28;20258;-71
2023/06/21 02:27:40;;;;;;;68.93;28.38;;;;;;;;;;5062745;28;20177;-70
2023/06/21 02:30:05;;;;;;;49.05;27.92;;;;;;;;;;5069209;28;20173;-71
2023/06/21 02:32:30;;;;;;;51.35;28.75;;;;;;;;;;5070701;28;20196;-71
2023/06/21 02:34:56;;;;;;;49.15;27.70;;;;;;;;;;5067986;28;20225;-70
2023/06/21 02:37:21;;;;;;;47.85;27.30;;;;;;;;;;5070070;28;20185;-70
2023/06/21 02:39:47;;;;;;;48.50;27.85;;;;;;;;;;5070600;28;20196;-70
2023/06/21 02:42:12;;;;;;;51.03;26.77;;;;;;;;;;5068706;28;20208;-70
2023/06/21 02:44:37;;;;;;;51.83;27.33;;;;;;;;;;5069541;28;20200;-71
2023/06/21 02:47:02;;;;;;;57.13;30.30;;;;;;;;;;5069708;28;20207;-71
2023/06/21 02:49:28;;;;;;;47.58;27.63;;;;;;;;;;5067317;28;20186;-71
2023/06/21 02:51:53;;;;;;;54.00;28.70;;;;;;;;;;5070750;28;20180;-70
2023/06/21 02:54:19;;;;;;;47.38;27.23;;;;;;;;;;5068551;28;20574;-71
2023/06/21 02:56:44;;;;;;;56.10;27.40;;;;;;;;;;5067902;28;20185;-70
2023/06/21 02:59:09;;;;;;;53.30;29.52;;;;;;;;;;5069661;28;20180;-70
2023/06/21 03:01:35;;;;;;;57.85;27.90;;;;;;;;;;5069000;28;20181;-73
2023/06/21 03:04:00;;;;;;;55.67;28.95;;;;;;;;;;5067677;28;20682;-71
2023/06/21 03:06:25;;;;;;;60.80;29.23;;;;;;;;;;5066256;28;20243;-71
2023/06/21 03:08:51;;;;;;;55.53;28.48;;;;;;;;;;5068680;28;20180;-71
2023/06/21 03:11:17;;;;;;;61.15;30.67;;;;;;;;;;5065084;28;20177;-71
2023/06/21 03:13:42;;;;;;;54.78;28.20;;;;;;;;;;5064532;28;20270;-71
2023/06/21 03:16:07;;;;;;;48.65;26.75;;;;;;;;;;5069970;28;20200;-71
2023/06/21 03:18:32;;;;;;;59.28;28.92;;;;;;;;;;5068874;28;20185;-71
2023/06/21 03:21:00;;;;;;;57.38;28.88;;;;;;;;;;5069301;28;20640;-71
2023/06/21 03:23:26;;;;;;;51.55;26.80;;;;;;;;;;5070766;28;20698;-71
2023/06/21 03:25:51;;;;;;;50.85;27.27;;;;;;;;;;5070874;28;20443;-71
2023/06/21 03:28:16;;;;;;;50.58;27.40;;;;;;;;;;5065502;28;20173;-71
2023/06/21 03:30:41;;;;;;;52.45;26.60;;;;;;;;;;5066871;28;20325;-70
2023/06/21 03:33:07;;;;;;;51.45;27.55;;;;;;;;;;5069136;28;20557;-70
2023/06/21 03:35:32;;;;;;;52.17;26.63;;;;;;;;;;5070749;28;20200;-71
2023/06/21 03:37:57;;;;;;;58.38;28.58;;;;;;;;;;5068517;28;20181;-70
2023/06/21 03:40:22;;;;;;;56.80;29.40;;;;;;;;;;5070407;28;20185;-71
2023/06/21 03:42:48;;;;;;;57.08;27.80;;;;;;;;;;5069397;28;20945;-70
2023/06/21 03:45:13;;;;;;;58.20;29.20;;;;;;;;;;5070695;28;20200;-71
2023/06/21 03:47:39;;;;;;;53.28;28.95;;;;;;;;;;5069399;28;20204;-71
2023/06/21 03:50:05;;;;;;;60.35;30.15;;;;;;;;;;5070448;28;20193;-71
2023/06/21 03:52:30;;;;;;;57.25;28.63;;;;;;;;;;5068780;28;20204;-71
2023/06/21 03:54:55;;;;;;;58.22;27.95;;;;;;;;;;5067977;28;20560;-71
2023/06/21 03:57:20;;;;;;;64.88;31.40;;;;;;;;;;5069996;28;20271;-71
2023/06/21 03:59:45;;;;;;;55.80;28.65;;;;;;;;;;5069547;28;20680;-70
2023/06/21 04:02:11;;;;;;;56.05;26.95;;;;;;;;;;5060230;28;20185;-71
2023/06/21 04:04:36;;;;;;;59.70;28.83;;;;;;;;;;5067064;28;20196;-71
2023/06/21 04:07:01;;;;;;;60.33;28.42;;;;;;;;;;5069720;28;20177;-71
2023/06/21 04:09:26;;;;;;;62.08;30.52;;;;;;;;;;5069154;28;20184;-71
2023/06/21 04:11:52;;;;;;;51.30;26.77;;;;;;;;;;5069863;28;20181;-71
2023/06/21 04:14:18;;;;;;;53.97;28.70;;;;;;;;;;5062083;28;20199;-71
2023/06/21 04:16:43;;;;;;;54.78;27.48;;;;;;;;;;5071511;28;20183;-71
2023/06/21 04:19:08;;;;;;;55.97;28.80;;;;;;;;;;5073457;28;20205;-71
2023/06/21 04:21:33;;;;;;;51.40;27.45;;;;;;;;;;5071596;28;20184;-71
2023/06/21 04:23:59;;;;;;;45.70;23.90;;;;;;;;;;5074154;28;20208;-71
2023/06/21 04:26:24;;;;;;;44.93;26.13;;;;;;;;;;5074485;28;20215;-71
2023/06/21 04:28:49;;;;;;;48.57;26.27;;;;;;;;;;5072065;28;20459;-71
2023/06/21 04:31:15;;;;;;;43.45;24.13;;;;;;;;;;5072020;28;20851;-71
2023/06/21 04:33:40;;;;;;;41.78;22.58;;;;;;;;;;5073147;28;20196;-71
2023/06/21 04:36:05;;;;;;;42.88;24.60;;;;;;;;;;5072385;28;20212;-71
2023/06/21 04:38:32;;;;;;;44.05;21.35;;;;;;;;;;5067778;28;20431;-71
2023/06/21 04:40:57;;;;;;;37.35;21.70;;;;;;;;;;5068137;28;20630;-72
2023/06/21 04:43:24;;;;;;;35.50;21.10;;;;;;;;;;5068537;28;20193;-71
2023/06/21 04:45:50;;;;;;;36.72;20.08;;;;;;;;;;5067472;28;20193;-71
2023/06/21 04:48:15;;;;;;;31.90;18.92;;;;;;;;;;5071165;28;20298;-71
2023/06/21 04:50:45;;;;;;;33.90;19.40;;;;;;;;;;5071534;28;20611;-71
2023/06/21 04:53:10;;;;;;;28.73;17.83;;;;;;;;;;5073768;28;20202;-71
2023/06/21 04:55:35;;;;;;;25.25;16.02;;;;;;;;;;5070763;28;20182;-71
2023/06/21 04:58:03;;;;;;;25.35;15.68;;;;;;;;;;5071305;28;20179;-71
2023/06/21 05:00:28;;;;;;;24.65;15.63;;;;;;;;;;5071883;28;20269;-71
2023/06/21 05:02:53;;;;;;;18.42;12.93;;;;;;;;;;5069194;28;20702;-71
2023/06/21 05:05:18;;;;;;;21.45;13.10;;;;;;;;;;5068767;28;20205;-71
2023/06/21 05:07:43;;;;;;;20.30;13.13;;;;;;;;;;5071764;28;20272;-71
2023/06/21 05:10:09;;;;;;;21.90;13.00;;;;;;;;;;5071880;28;20170;-71
2023/06/21 05:12:35;;;;;;;16.73;11.52;;;;;;;;;;5073572;28;20176;-71
2023/06/21 05:15:00;;;;;;;18.35;11.93;;;;;;;;;;5072751;28;20177;-71
2023/06/21 05:17:25;;;;;;;16.25;11.23;;;;;;;;;;5073854;28;20664;-71
2023/06/21 05:19:50;;;;;;;16.70;11.43;;;;;;;;;;5071327;28;20558;-71
2023/06/21 05:22:16;;;;;;;15.93;11.10;;;;;;;;;;5073370;28;20642;-71
2023/06/21 05:24:41;;;;;;;15.98;11.32;;;;;;;;;;5070930;28;20461;-71
2023/06/21 05:27:06;;;;;;;17.48;12.35;;;;;;;;;;5071276;28;20177;-71
2023/06/21 05:29:31;;;;;;;17.20;10.90;;;;;;;;;;5070538;28;20177;-71
2023/06/21 05:31:56;;;;;;;17.88;11.13;;;;;;;;;;5072059;28;20743;-71
2023/06/21 05:34:22;;;;;;;16.00;10.03;;;;;;;;;;5071200;28;20201;-71
2023/06/21 05:36:47;;;;;;;13.88;8.52;;;;;;;;;;5071577;28;20516;-71
2023/06/21 05:39:13;;;;;;;14.18;7.88;;;;;;;;;;5071484;28;20201;-71
2023/06/21 05:41:38;;;;;;;13.27;7.95;;;;;;;;;;5071934;28;20188;-71
2023/06/21 05:44:03;;;;;;;14.47;8.77;;;;;;;;;;5072452;28;20197;-71
2023/06/21 05:46:28;;;;;;;14.50;7.90;;;;;;;;;;5069741;28;21038;-71
2023/06/21 05:48:54;;;;;;;12.47;7.17;;;;;;;;;;5071857;28;20435;-71
2023/06/21 05:51:19;;;;;;;8.82;6.43;;;;;;;;;;5072255;28;20421;-71
2023/06/21 05:53:44;;;;;;;9.63;6.30;;;;;;;;;;5072260;28;20242;-71
2023/06/21 05:56:09;;;;;;;9.32;7.28;;;;;;;;;;5067302;28;20510;-71
2023/06/21 05:58:34;;;;;;;12.55;6.70;;;;;;;;;;5072002;28;20208;-71
2023/06/21 06:01:00;;;;;;;8.85;6.70;;;;;;;;;;5064171;28;20169;-71
2023/06/21 06:03:25;;;;;;;12.60;7.00;;;;;;;;;;5066510;28;20209;-71
2023/06/21 06:05:52;;;;;;;10.35;7.43;;;;;;;;;;5066130;28;20492;-71
2023/06/21 06:08:17;;;;;;;12.05;6.43;;;;;;;;;;5069457;28;20201;-71
2023/06/21 06:10:42;;;;;;;9.38;6.80;;;;;;;;;;5071142;28;20662;-71
2023/06/21 06:13:08;;;;;;;15.48;7.28;;;;;;;;;;5069742;28;20193;-71
2023/06/21 06:15:33;;;;;;;8.25;5.90;;;;;;;;;;5070417;28;20258;-71
2023/06/21 06:17:58;;;;;;;7.85;5.45;;;;;;;;;;5071225;28;20181;-71
2023/06/21 06:20:23;;;;;;;7.45;4.15;;;;;;;;;;5071181;28;20914;-71
2023/06/21 06:25:25;;;;;;;6.28;3.65;;;;;;;;;;5057386;28;20283;-78
2023/06/21 06:27:50;;;;;;;6.07;3.83;;;;;;;;;;5061374;28;20177;-77
2023/06/21 06:30:16;;;;;;;9.23;3.90;;;;;;;;;;5052943;28;20173;-77
2023/06/21 06:32:41;;;;;;;4.55;3.20;;;;;;;;;;5060515;28;20186;-76
2023/06/21 06:35:06;;;;;;;6.03;2.67;;;;;;;;;;5055502;28;20272;-76
2023/06/21 06:37:32;;;;;;;4.45;2.65;;;;;;;;;;5051272;28;20447;-77
2023/06/21 06:39:57;;;;;;;7.07;2.35;;;;;;;;;;5052584;28;20326;-76
2023/06/21 06:42:22;;;;;;;3.42;2.20;;;;;;;;;;5052809;28;20636;-76
2023/06/21 06:44:47;;;;;;;4.47;2.20;;;;;;;;;;5049802;28;20223;-78
2023/06/21 06:47:13;;;;;;;4.38;2.80;;;;;;;;;;5058998;28;20256;-76
2023/06/21 06:49:38;;;;;;;3.55;2.45;;;;;;;;;;5063952;28;20177;-78
2023/06/21 06:52:04;;;;;;;4.88;2.17;;;;;;;;;;5054930;28;20200;-77
2023/06/21 06:54:29;;;;;;;3.72;2.88;;;;;;;;;;5053241;28;20255;-78
2023/06/21 06:56:54;;;;;;;2.83;2.00;;;;;;;;;;5054661;28;20200;-78
2023/06/21 06:59:20;;;;;;;5.47;2.72;;;;;;;;;;5059417;28;20476;-77
2023/06/21 07:01:45;;;;;;;6.00;2.65;;;;;;;;;;5055336;28;20231;-77
2023/06/21 07:04:10;;;;;;;3.70;1.77;;;;;;;;;;5059051;28;20268;-76
2023/06/21 07:06:35;;;;;;;6.17;1.93;;;;;;;;;;5051631;28;20208;-76
2023/06/21 07:09:02;;;;;;;5.60;2.27;;;;;;;;;;5045706;28;20907;-77
2023/06/21 07:11:27;;;;;;;4.05;2.22;;;;;;;;;;5050797;28;20564;-76
2023/06/21 07:13:53;;;;;;;2.70;2.05;;;;;;;;;;5055070;28;20248;-78
2023/06/21 07:16:18;;;;;;;3.77;2.10;;;;;;;;;;5053029;28;20226;-78
2023/06/21 07:18:43;;;;;;;5.25;1.80;;;;;;;;;;5053173;28;20410;-76
2023/06/21 07:21:08;;;;;;;9.18;1.73;;;;;;;;;;5055584;28;20169;-77
2023/06/21 07:23:33;;;;;;;4.63;2.13;;;;;;;;;;5056015;28;20245;-78
2023/06/21 07:25:59;;;;;;;4.27;1.83;;;;;;;;;;5055265;28;20250;-80
2023/06/21 07:28:24;;;;;;;4.60;1.87;;;;;;;;;;5056467;28;20443;-79
2023/06/21 07:30:49;;;;;;;4.07;1.60;;;;;;;;;;5049790;28;20523;-76
2023/06/21 07:33:14;;;;;;;3.85;1.55;;;;;;;;;;5055729;28;20200;-77
2023/06/21 07:35:39;;;;;;;3.60;1.80;;;;;;;;;;5060582;28;20186;-79
2023/06/21 07:38:06;;;;;;;4.18;1.65;;;;;;;;;;5061439;28;20804;-80
2023/06/21 07:40:32;;;;;;;4.70;1.65;;;;;;;;;;5069938;28;20178;-82
2023/06/21 07:42:57;;;;;;;3.17;1.45;;;;;;;;;;5061808;28;20181;-82
2023/06/21 07:45:23;;;;;;;1.97;1.30;;;;;;;;;;5063360;28;20193;-75
2023/06/21 07:47:48;;;;;;;2.83;1.70;;;;;;;;;;5059458;28;20491;-67
2023/06/21 07:50:13;;;;;;;2.23;1.33;;;;;;;;;;5050192;28;20185;-77
2023/06/21 07:52:38;;;;;;;2.10;1.27;;;;;;;;;;5053901;28;20429;-78
2023/06/21 07:55:05;;;;;;;3.17;1.50;;;;;;;;;;5048376;28;20462;-79
2023/06/21 07:57:30;;;;;;;2.45;1.50;;;;;;;;;;5059163;28;20946;-78
2023/06/21 07:59:58;;;;;;;3.50;1.75;;;;;;;;;;5067949;28;20188;-78
2023/06/21 08:02:23;;;;;;;2.25;1.52;;;;;;;;;;5059199;28;20203;-77
2023/06/21 08:04:49;;;;;;;2.27;1.50;;;;;;;;;;5062674;28;20228;-78
2023/06/21 08:07:14;;;;;;;3.30;1.70;;;;;;;;;;5065581;28;20403;-79
2023/06/21 08:09:39;;;;;;;3.15;1.65;;;;;;;;;;5058060;28;20817;-78
2023/06/21 08:12:05;;;;;;;3.17;1.30;;;;;;;;;;5052066;28;20636;-77
2023/06/21 08:14:30;;;;;;;3.97;1.55;;;;;;;;;;5055419;28;20236;-77
2023/06/21 08:16:55;;;;;;;2.00;1.55;;;;;;;;;;5057481;28;20618;-77
2023/06/21 08:19:20;;;;;;;2.60;1.77;;;;;;;;;;5067075;28;20568;-76
2023/06/21 08:21:46;;;;;;;2.33;1.60;;;;;;;;;;5059241;28;20537;-77
2023/06/21 08:24:11;;;;;;;2.97;1.45;;;;;;;;;;5062859;28;20226;-77
2023/06/21 08:26:36;;;;;;;3.00;1.40;;;;;;;;;;5061666;28;20247;-79
2023/06/21 08:29:02;;;;;;;4.43;1.55;;;;;;;;;;5064616;28;20409;-77
2023/06/21 08:31:27;;;;;;;3.42;1.30;;;;;;;;;;5062402;28;20181;-78
2023/06/21 08:33:52;;;;;;;3.60;1.55;;;;;;;;;;5061459;28;20193;-77
2023/06/21 08:36:17;;;;;;;4.20;1.93;;;;;;;;;;5062669;28;20173;-77
2023/06/21 08:38:42;;;;;;;3.40;1.60;;;;;;;;;;5066630;28;20491;-75
2023/06/21 08:41:08;;;;;;;2.70;1.67;;;;;;;;;;5058068;28;20177;-77
2023/06/21 08:43:33;;;;;;;2.20;1.60;;;;;;;;;;5067738;28;20821;-78
2023/06/21 08:46:03;;;;;;;2.17;1.52;;;;;;;;;;5065932;28;20241;-76
2023/06/21 08:48:29;;;;;;;2.05;1.42;;;;;;;;;;5066700;28;20249;-77
2023/06/21 08:50:55;;;;;;;2.17;1.48;;;;;;;;;;5059679;28;20169;-79
2023/06/21 08:53:25;;;;;;;2.92;2.17;;;;;;;;;;5066169;28;20245;-76
2023/06/21 08:55:50;;;;;;;6.15;2.58;;;;;;;;;;5062150;28;20243;-79
2023/06/21 08:58:17;;;;;;;2.75;1.88;;;;;;;;;;5070337;28;20178;-78
2023/06/21 09:00:44;;;;;;;3.40;1.80;;;;;;;;;;5057670;28;20388;-79
2023/06/21 09:03:13;;;;;;;2.75;1.42;;;;;;;;;;5056302;28;20169;-79
2023/06/21 09:05:47;;;;;;;2.72;1.88;;;;;;;;;;5058797;28;20212;-80
2023/06/21 09:08:14;;;;;;;1.90;0.90;;;;;;;;;;5054387;28;20193;-76
2023/06/21 09:10:40;;;;;;;2.75;1.20;;;;;;;;;;5057556;28;20200;-78
2023/06/21 09:13:06;;;;;;;4.40;1.50;;;;;;;;;;5065155;28;20642;-77
2023/06/21 09:15:32;;;;;;;2.67;0.82;;;;;;;;;;5051398;28;20181;-77
2023/06/21 09:17:58;;;;;;;0.95;0.73;;;;;;;;;;5050878;28;20192;-77
2023/06/21 09:20:27;;;;;;;1.75;0.82;;;;;;;;;;5057612;28;20257;-76
2023/06/21 09:22:52;;;;;;;2.15;1.10;;;;;;;;;;5065561;28;20268;-76
2023/06/21 09:25:18;;;;;;;3.00;1.30;;;;;;;;;;5060327;28;20318;-78
2023/06/21 09:27:43;;;;;;;1.50;1.05;;;;;;;;;;5056802;28;20202;-78
2023/06/21 09:30:09;;;;;;;1.20;1.00;;;;;;;;;;5054453;28;20170;-77
2023/06/21 09:32:35;;;;;;;3.08;1.20;;;;;;;;;;5060955;28;20410;-77
2023/06/21 09:35:01;;;;;;;2.80;1.20;;;;;;;;;;5062117;28;20205;-78
2023/06/21 09:37:29;;;;;;;1.23;0.88;;;;;;;;;;5059521;28;20181;-78
2023/06/21 09:39:55;;;;;;;2.83;1.38;;;;;;;;;;5058076;28;20299;-79
2023/06/21 09:42:21;;;;;;;2.22;1.10;;;;;;;;;;5067014;28;20216;-78
2023/06/21 09:44:47;;;;;;;3.90;1.15;;;;;;;;;;5061149;28;20663;-77
2023/06/21 09:47:13;;;;;;;1.90;1.13;;;;;;;;;;5061296;28;20192;-79
2023/06/21 09:49:44;;;;;;;2.97;1.20;;;;;;;;;;5058764;28;20534;-79
2023/06/21 09:52:10;;;;;;;4.05;1.30;;;;;;;;;;5055833;28;20269;-77
2023/06/21 09:54:44;;;;;;;2.92;1.30;;;;;;;;;;5058362;28;20622;-79
2023/06/21 09:57:09;;;;;;;3.67;1.00;;;;;;;;;;5061845;28;20183;-79
2023/06/21 09:59:38;;;;;;;1.55;0.93;;;;;;;;;;5056344;28;20260;-78
2023/06/21 10:02:04;;;;;;;2.20;1.20;;;;;;;;;;5047841;28;20280;-79
2023/06/21 10:04:37;;;;;;;2.78;1.08;;;;;;;;;;5063697;28;20201;-80
2023/06/21 10:07:03;;;;;;;3.15;1.30;;;;;;;;;;5056832;28;20209;-78
2023/06/21 10:09:34;;;;;;;2.92;1.20;;;;;;;;;;5055327;28;20170;-78
2023/06/21 10:11:59;;;;;;;2.45;0.82;;;;;;;;;;5065658;28;20185;-78
2023/06/21 10:14:26;;;;;;;2.13;1.37;;;;;;;;;;5056965;28;20695;-77
2023/06/21 10:16:52;;;;;;;2.97;1.52;;;;;;;;;;5059622;28;20422;-79
2023/06/21 10:19:20;;;;;;;2.67;1.17;;;;;;;;;;5059936;28;20631;-79
2023/06/21 10:21:46;;;;;;;2.28;0.80;;;;;;;;;;5060376;28;20192;-79
2023/06/21 10:24:13;;;;;;;2.00;1.27;;;;;;;;;;5056514;28;20590;-79
2023/06/21 10:26:38;;;;;;;2.78;1.38;;;;;;;;;;5050552;28;20209;-79
2023/06/21 10:29:04;;;;;;;4.45;1.50;;;;;;;;;;5055961;28;20185;-78
2023/06/21 10:31:30;;;;;;;2.22;1.20;;;;;;;;;;5060561;28;20218;-79
2023/06/21 10:33:56;;;;;;;3.83;1.88;;;;;;;;;;5061753;28;20248;-77
2023/06/21 10:36:23;;;;;;;2.85;1.50;;;;;;;;;;5058198;28;20177;-77
2023/06/21 10:38:50;;;;;;;2.67;1.50;;;;;;;;;;5055578;28;20181;-78
2023/06/21 10:41:15;;;;;;;2.42;1.30;;;;;;;;;;5056298;28;20213;-78
2023/06/21 10:43:41;;;;;;;2.85;1.75;;;;;;;;;;5055215;28;20207;-77
2023/06/21 10:46:08;;;;;;;4.18;1.40;;;;;;;;;;5054556;28;20292;-79
2023/06/21 10:48:34;;;;;;;2.78;1.33;;;;;;;;;;5060282;28;20174;-79
2023/06/21 10:51:02;;;;;;;2.03;1.25;;;;;;;;;;5073387;28;20245;-80
2023/06/21 10:53:34;;;;;;;1.92;1.10;;;;;;;;;;5071459;28;20197;-80
2023/06/21 10:56:00;;;;;;;1.92;1.02;;;;;;;;;;5070563;28;20212;-79
2023/06/21 10:58:25;;;;;;;2.17;1.50;;;;;;;;;;5069153;28;20177;-78
2023/06/21 11:00:51;;;;;;;2.35;1.40;;;;;;;;;;5058578;28;20217;-79
2023/06/21 11:03:23;;;;;;;2.22;1.20;;;;;;;;;;5069761;28;20191;-78
2023/06/21 11:05:48;;;;;;;3.35;1.50;;;;;;;;;;5065315;28;20683;-78
2023/06/21 11:08:14;;;;;;;3.93;1.40;;;;;;;;;;5064813;28;20184;-79
2023/06/21 11:10:39;;;;;;;3.00;1.85;;;;;;;;;;5067111;28;20461;-81
2023/06/21 11:13:04;;;;;;;4.13;2.10;;;;;;;;;;5070762;28;20180;-81
2023/06/21 11:15:30;;;;;;;5.25;1.80;;;;;;;;;;5065939;28;20174;-80
2023/06/21 11:17:59;;;;;;;4.18;1.58;;;;;;;;;;5055873;28;20180;-77
2023/06/21 11:20:24;;;;;;;2.75;1.50;;;;;;;;;;5049016;28;20173;-76
2023/06/21 11:22:56;;;;;;;4.53;1.38;;;;;;;;;;5058314;28;20177;-77
2023/06/21 11:25:22;;;;;;;5.00;1.50;;;;;;;;;;5054076;28;20239;-78
2023/06/21 11:28:23;;;;;;;3.28;1.17;;;;;;;;;;5063203;28;20189;-80
2023/06/21 11:31:03;;;;;;;2.20;1.27;;;;;;;;;;4976963;28;20215;-78
2023/06/21 11:33:29;;;;;;;2.85;1.48;;;;;;;;;;5054748;28;20217;-78
2023/06/21 11:36:02;;;;;;;2.92;1.30;;;;;;;;;;5044964;28;20185;-77
2023/06/21 11:38:28;;;;;;;4.78;1.77;;;;;;;;;;5059826;28;20201;-78
2023/06/21 11:40:53;;;;;;;4.28;1.55;;;;;;;;;;5062452;28;20182;-83
2023/06/21 11:43:18;;;;;;;2.60;1.70;;;;;;;;;;5058930;28;20644;-81
2023/06/21 11:45:53;;;;;;;2.42;1.40;;;;;;;;;;5055678;28;20458;-78
2023/06/21 11:48:23;;;;;;;2.70;1.23;;;;;;;;;;5050398;28;20546;-77
2023/06/21 11:50:49;;;;;;;4.03;1.70;;;;;;;;;;5056037;28;20174;-79
2023/06/21 11:53:17;;;;;;;3.20;1.60;;;;;;;;;;5061693;28;20205;-78
2023/06/21 11:55:42;;;;;;;2.85;1.50;;;;;;;;;;5060628;28;20177;-79
2023/06/21 11:58:09;;;;;;;2.30;1.45;;;;;;;;;;5065329;28;20175;-78
2023/06/21 12:00:34;;;;;;;2.05;1.15;;;;;;;;;;5072195;28;20177;-81
2023/06/21 12:03:01;;;;;;;1.95;1.08;;;;;;;;;;5065287;28;20192;-81
2023/06/21 12:05:26;;;;;;;3.92;1.40;;;;;;;;;;5069582;28;20236;-77
2023/06/21 12:07:51;;;;;;;2.30;1.20;;;;;;;;;;5069442;28;20181;-80
2023/06/21 12:10:17;;;;;;;3.75;1.65;;;;;;;;;;5070408;28;20249;-79
2023/06/21 12:12:43;;;;;;;2.90;1.10;;;;;;;;;;5082119;28;20261;-80
2023/06/21 12:15:08;;;;;;;5.50;1.65;;;;;;;;;;5071663;28;20426;-80
2023/06/21 12:17:33;;;;;;;2.30;1.20;;;;;;;;;;5077828;28;20240;-79
2023/06/21 12:20:03;;;;;;;2.27;1.40;;;;;;;;;;5079945;28;20200;-76
2023/06/21 12:22:28;;;;;;;3.65;1.40;;;;;;;;;;5067002;28;20445;-79
2023/06/21 12:24:55;;;;;;;2.40;1.40;;;;;;;;;;5075330;22;20232;-71
2023/06/21 12:27:20;;;;;;;2.30;1.50;;;;;;;;;;5066549;28;20412;-71
2023/06/21 12:29:46;;;;;;;4.78;2.22;;;;;;;;;;5073631;28;20172;-70
2023/06/21 12:32:11;;;;;;;3.20;2.13;;;;;;;;;;5067037;28;20187;-70
2023/06/21 12:34:38;;;;;;;3.33;2.13;;;;;;;;;;5062457;28;20591;-70
2023/06/21 12:37:03;;;;;;;3.00;1.95;;;;;;;;;;5066056;28;20185;-71
2023/06/21 12:39:28;;;;;;;3.20;1.60;;;;;;;;;;5069688;28;20172;-70
2023/06/21 12:41:54;;;;;;;3.83;2.03;;;;;;;;;;5068837;28;20181;-70
2023/06/21 12:44:31;;;;;;;5.18;2.60;;;;;;;;;;5063813;28;20823;-70
2023/06/21 12:46:56;;;;;;;5.32;3.45;;;;;;;;;;5070205;28;20652;-70
2023/06/21 12:49:22;;;;;;;2.90;2.50;;;;;;;;;;5068036;28;20256;-71
2023/06/21 12:51:47;;;;;;;4.35;3.10;;;;;;;;;;5064228;28;20560;-70
2023/06/21 12:54:19;;;;;;;4.28;3.60;;;;;;;;;;5060483;28;20193;-70
2023/06/21 12:56:52;;;;;;;6.05;3.08;;;;;;;;;;5068213;28;20212;-71
2023/06/21 12:59:18;;;;;;;5.68;3.00;;;;;;;;;;5066564;28;20173;-70
2023/06/21 13:01:43;;;;;;;6.88;4.22;;;;;;;;;;5064950;28;20286;-70
2023/06/21 13:04:09;;;;;;;5.43;3.03;;;;;;;;;;5063856;28;20201;-70
2023/06/21 13:06:35;;;;;;;4.28;2.67;;;;;;;;;;5068053;28;20455;-70
2023/06/21 13:09:00;;;;;;;3.50;2.72;;;;;;;;;;5066509;28;20256;-70
2023/06/21 13:11:26;;;;;;;6.30;3.20;;;;;;;;;;5067324;28;20182;-70
2023/06/21 13:13:51;;;;;;;6.97;3.95;;;;;;;;;;5065260;28;20623;-71
2023/06/21 13:16:16;;;;;;;4.28;3.35;;;;;;;;;;5065293;28;20866;-71
2023/06/21 13:18:44;;;;;;;4.18;3.17;;;;;;;;;;5068793;28;20181;-71
2023/06/21 13:21:12;;;;;;;3.33;2.03;;;;;;;;;;5069102;28;20290;-71
2023/06/21 13:23:38;;;;;;;1.23;1.05;;;;;;;;;;5062302;28;20468;-72
2023/06/21 13:26:03;;;;;;;1.25;0.95;;;;;;;;;;5068388;28;20193;-71
2023/06/21 13:28:28;;;;;;;1.33;0.90;;;;;;;;;;5068239;28;20227;-72
2023/06/21 13:30:54;;;;;;;1.47;1.10;;;;;;;;;;5068022;28;20786;-71
2023/06/21 13:33:19;;;;;;;2.92;2.17;;;;;;;;;;5060595;28;20169;-72
2023/06/21 13:35:44;;;;;;;3.75;1.50;;;;;;;;;;5063363;28;20248;-71
2023/06/21 13:38:10;;;;;;;3.50;2.05;;;;;;;;;;5072226;28;20191;-72
2023/06/21 13:40:35;;;;;;;3.13;2.88;;;;;;;;;;5068526;28;20255;-72
2023/06/21 13:43:01;;;;;;;2.97;2.40;;;;;;;;;;5066117;28;20271;-72
2023/06/21 13:45:26;;;;;;;3.53;2.83;;;;;;;;;;5067794;28;20244;-72
2023/06/21 13:47:51;;;;;;;4.88;2.70;;;;;;;;;;5065009;28;20189;-72
2023/06/21 13:50:17;;;;;;;3.25;2.75;;;;;;;;;;5058881;28;20177;-71
2023/06/21 13:52:42;;;;;;;4.10;2.50;;;;;;;;;;5058351;28;20178;-72
2023/06/21 13:55:12;;;;;;;3.43;2.63;;;;;;;;;;5068996;28;20430;-72
2023/06/21 13:57:40;;;;;;;6.03;3.67;;;;;;;;;;5072450;28;20604;-71
2023/06/21 14:00:06;;;;;;;6.47;3.75;;;;;;;;;;5068976;28;20177;-71
2023/06/21 14:02:32;;;;;;;6.00;4.00;;;;;;;;;;5065951;28;20496;-71
2023/06/21 14:04:57;;;;;;;6.60;3.03;;;;;;;;;;5072414;28;20189;-72
2023/06/21 14:07:22;;;;;;;6.93;3.35;;;;;;;;;;5068808;28;20642;-72
2023/06/21 14:09:47;;;;;;;5.00;3.72;;;;;;;;;;5062651;28;20204;-71
2023/06/21 14:12:12;;;;;;;4.00;3.17;;;;;;;;;;5055572;28;20234;-72
2023/06/21 14:14:39;;;;;;;4.15;3.58;;;;;;;;;;5063109;28;20451;-71
2023/06/21 14:17:05;;;;;;;5.28;3.88;;;;;;;;;;5065198;28;20230;-71
2023/06/21 14:19:31;;;;;;;4.47;3.50;;;;;;;;;;5058618;28;20176;-73
2023/06/21 14:21:56;;;;;;;4.72;4.05;;;;;;;;;;5061945;28;20531;-72
2023/06/21 14:24:21;;;;;;;2.87;2.50;;;;;;;;;;5071619;28;20216;-72
2023/06/21 14:26:46;;;;;;;3.90;2.67;;;;;;;;;;5072233;28;21000;-72
2023/06/21 14:29:12;;;;;;;5.37;3.50;;;;;;;;;;5069264;28;20425;-72
2023/06/21 14:31:37;;;;;;;6.85;3.80;;;;;;;;;;5065459;28;20406;-71